sensor_id;sensor_type;location;lat;lon;timestamp;noise_LAeq;noise_LA_min;noise_LA_max;noise_LA01;noise_LA95
69620;Laerm;57654;51.434;5.984;2023-04-03T00:00:01;32.71;29.43;38.32;;
69620;Laerm;57654;51.434;5.984;2023-04-03T00:00:11;32.84;29.70;37.52;;
69620;Laerm;57654;51.434;5.984;2023-04-03T00:00:22;33.01;29.61;40.49;;
69620;Laerm;57654;51.434;5.984;2023-04-03T00:00:32;32.96;29.83;39.62;;
69620;Laerm;57654;51.434;5.984;2023-04-03T00:00:42;32.52;29.50;38.51;;
69620;Laerm;57654;51.434;5.984;2023-04-03T00:00:53;32.94;29.64;38.00;;
69620;Laerm;57654;51.434;5.984;2023-04-03T00:01:03;33.04;29.56;39.49;;
69620;Laerm;57654;51.434;5.984;2023-04-03T00:01:14;32.91;29.88;38.64;;
69620;Laerm;57654;51.434;5.984;2023-04-03T00:01:24;32.81;30.01;39.48;;
69620;Laerm;57654;51.434;5.984;2023-04-03T00:01:34;32.90;29.81;40.51;;
69620;Laerm;57654;51.434;5.984;2023-04-03T00:01:45;33.93;30.46;39.20;;
69620;Laerm;57654;51.434;5.984;2023-04-03T00:01:55;45.30;34.29;52.14;;
69620;Laerm;57654;51.434;5.984;2023-04-03T00:02:05;53.84;50.52;55.70;;
69620;Laerm;57654;51.434;5.984;2023-04-03T00:02:16;53.23;50.14;55.35;;
69620;Laerm;57654;51.434;5.984;2023-04-03T00:02:26;47.39;41.26;51.88;;
69620;Laerm;57654;51.434;5.984;2023-04-03T00:02:36;39.83;35.70;43.91;;
69620;Laerm;57654;51.434;5.984;2023-04-03T00:02:46;36.54;32.90;39.37;;
69620;Laerm;57654;51.434;5.984;2023-04-03T00:02:57;35.19;32.89;39.38;;
69620;Laerm;57654;51.434;5.984;2023-04-03T00:03:07;34.63;32.30;38.09;;
69620;Laerm;57654;51.434;5.984;2023-04-03T00:03:18;34.46;32.06;39.09;;
69620;Laerm;57654;51.434;5.984;2023-04-03T00:03:28;33.88;31.20;38.38;;
69620;Laerm;57654;51.434;5.984;2023-04-03T00:03:39;33.17;30.37;41.06;;
69620;Laerm;57654;51.434;5.984;2023-04-03T00:03:49;33.22;30.15;38.35;;
69620;Laerm;57654;51.434;5.984;2023-04-03T00:04:00;33.22;29.81;41.31;;
69620;Laerm;57654;51.434;5.984;2023-04-03T00:04:10;32.90;30.00;38.83;;
69620;Laerm;57654;51.434;5.984;2023-04-03T00:04:20;32.78;29.62;38.89;;
69620;Laerm;57654;51.434;5.984;2023-04-03T00:04:31;32.83;29.60;38.85;;
69620;Laerm;57654;51.434;5.984;2023-04-03T00:04:41;32.90;29.79;38.40;;
69620;Laerm;57654;51.434;5.984;2023-04-03T00:04:52;33.08;29.95;39.12;;
69620;Laerm;57654;51.434;5.984;2023-04-03T00:05:02;33.12;29.84;39.86;;
69620;Laerm;57654;51.434;5.984;2023-04-03T00:05:12;32.86;29.69;39.68;;
69620;Laerm;57654;51.434;5.984;2023-04-03T00:05:23;32.96;29.74;39.44;;
69620;Laerm;57654;51.434;5.984;2023-04-03T00:05:33;33.17;29.88;39.66;;
69620;Laerm;57654;51.434;5.984;2023-04-03T00:05:43;33.01;29.33;39.56;;
69620;Laerm;57654;51.434;5.984;2023-04-03T00:05:53;33.25;30.18;39.92;;
69620;Laerm;57654;51.434;5.984;2023-04-03T00:06:05;33.33;29.65;40.32;;
69620;Laerm;57654;51.434;5.984;2023-04-03T00:06:18;32.72;29.75;38.34;;
69620;Laerm;57654;51.434;5.984;2023-04-03T00:06:29;32.97;29.57;38.38;;
69620;Laerm;57654;51.434;5.984;2023-04-03T00:06:39;32.69;29.20;37.77;;
69620;Laerm;57654;51.434;5.984;2023-04-03T00:06:50;32.73;29.66;39.34;;
69620;Laerm;57654;51.434;5.984;2023-04-03T00:07:00;32.97;29.76;37.50;;
69620;Laerm;57654;51.434;5.984;2023-04-03T00:07:10;33.25;29.39;43.89;;
69620;Laerm;57654;51.434;5.984;2023-04-03T00:07:22;33.13;29.30;40.62;;
69620;Laerm;57654;51.434;5.984;2023-04-03T00:07:32;32.98;29.77;39.80;;
69620;Laerm;57654;51.434;5.984;2023-04-03T00:07:42;32.93;29.55;40.62;;
69620;Laerm;57654;51.434;5.984;2023-04-03T00:07:53;32.76;29.62;39.86;;
69620;Laerm;57654;51.434;5.984;2023-04-03T00:08:03;32.92;29.42;39.47;;
69620;Laerm;57654;51.434;5.984;2023-04-03T00:08:14;32.99;29.43;37.94;;
69620;Laerm;57654;51.434;5.984;2023-04-03T00:08:25;32.77;29.14;37.98;;
69620;Laerm;57654;51.434;5.984;2023-04-03T00:08:35;33.05;29.69;38.82;;
69620;Laerm;57654;51.434;5.984;2023-04-03T00:08:45;33.06;29.68;39.00;;
69620;Laerm;57654;51.434;5.984;2023-04-03T00:08:56;32.79;29.52;37.66;;
69620;Laerm;57654;51.434;5.984;2023-04-03T00:09:06;32.81;28.88;38.16;;
69620;Laerm;57654;51.434;5.984;2023-04-03T00:09:16;32.96;29.31;38.63;;
69620;Laerm;57654;51.434;5.984;2023-04-03T00:09:26;33.06;29.70;40.34;;
69620;Laerm;57654;51.434;5.984;2023-04-03T00:09:37;32.92;29.47;43.32;;
69620;Laerm;57654;51.434;5.984;2023-04-03T00:09:47;32.88;29.76;39.59;;
69620;Laerm;57654;51.434;5.984;2023-04-03T00:09:57;33.34;29.47;42.53;;
69620;Laerm;57654;51.434;5.984;2023-04-03T00:10:08;33.04;29.78;39.38;;
69620;Laerm;57654;51.434;5.984;2023-04-03T00:10:18;32.78;29.84;38.38;;
69620;Laerm;57654;51.434;5.984;2023-04-03T00:10:28;33.20;29.69;38.93;;
69620;Laerm;57654;51.434;5.984;2023-04-03T00:10:39;32.80;29.38;39.93;;
69620;Laerm;57654;51.434;5.984;2023-04-03T00:10:49;33.01;29.75;39.48;;
69620;Laerm;57654;51.434;5.984;2023-04-03T00:11:00;33.06;29.72;42.14;;
69620;Laerm;57654;51.434;5.984;2023-04-03T00:11:10;33.53;29.59;43.68;;
69620;Laerm;57654;51.434;5.984;2023-04-03T00:11:20;33.09;29.89;43.40;;
69620;Laerm;57654;51.434;5.984;2023-04-03T00:11:31;32.84;29.53;40.19;;
69620;Laerm;57654;51.434;5.984;2023-04-03T00:11:41;32.75;29.67;37.35;;
69620;Laerm;57654;51.434;5.984;2023-04-03T00:11:52;33.19;29.59;39.24;;
69620;Laerm;57654;51.434;5.984;2023-04-03T00:12:02;32.81;29.52;37.85;;
69620;Laerm;57654;51.434;5.984;2023-04-03T00:12:12;33.00;29.62;40.94;;
69620;Laerm;57654;51.434;5.984;2023-04-03T00:12:23;33.00;29.70;41.66;;
69620;Laerm;57654;51.434;5.984;2023-04-03T00:12:33;32.77;29.56;38.26;;
69620;Laerm;57654;51.434;5.984;2023-04-03T00:12:43;32.65;29.58;40.40;;
69620;Laerm;57654;51.434;5.984;2023-04-03T00:12:53;32.72;29.40;38.51;;
69620;Laerm;57654;51.434;5.984;2023-04-03T00:13:04;32.89;29.74;41.15;;
69620;Laerm;57654;51.434;5.984;2023-04-03T00:13:15;32.89;29.53;39.07;;
69620;Laerm;57654;51.434;5.984;2023-04-03T00:13:25;33.05;29.68;39.73;;
69620;Laerm;57654;51.434;5.984;2023-04-03T00:13:36;33.06;29.61;41.09;;
69620;Laerm;57654;51.434;5.984;2023-04-03T00:13:46;33.13;29.65;39.62;;
69620;Laerm;57654;51.434;5.984;2023-04-03T00:13:57;32.80;29.82;43.88;;
69620;Laerm;57654;51.434;5.984;2023-04-03T00:14:07;32.96;29.98;38.53;;
69620;Laerm;57654;51.434;5.984;2023-04-03T00:14:17;32.96;29.47;38.89;;
69620;Laerm;57654;51.434;5.984;2023-04-03T00:14:28;33.09;29.25;39.39;;
69620;Laerm;57654;51.434;5.984;2023-04-03T00:14:38;32.86;29.44;39.44;;
69620;Laerm;57654;51.434;5.984;2023-04-03T00:14:48;33.10;29.46;40.50;;
69620;Laerm;57654;51.434;5.984;2023-04-03T00:14:58;32.94;29.38;39.53;;
69620;Laerm;57654;51.434;5.984;2023-04-03T00:15:09;32.84;29.18;38.96;;
69620;Laerm;57654;51.434;5.984;2023-04-03T00:15:19;32.87;29.96;41.71;;
69620;Laerm;57654;51.434;5.984;2023-04-03T00:15:30;33.05;29.44;40.43;;
69620;Laerm;57654;51.434;5.984;2023-04-03T00:15:40;33.05;29.72;37.78;;
69620;Laerm;57654;51.434;5.984;2023-04-03T00:15:51;33.25;29.82;41.05;;
69620;Laerm;57654;51.434;5.984;2023-04-03T00:16:01;32.91;29.53;38.80;;
69620;Laerm;57654;51.434;5.984;2023-04-03T00:16:13;32.84;29.61;38.66;;
69620;Laerm;57654;51.434;5.984;2023-04-03T00:16:23;32.79;29.68;37.81;;
69620;Laerm;57654;51.434;5.984;2023-04-03T00:16:33;32.99;29.50;38.11;;
69620;Laerm;57654;51.434;5.984;2023-04-03T00:16:44;32.71;29.55;38.11;;
69620;Laerm;57654;51.434;5.984;2023-04-03T00:16:54;32.85;29.50;40.98;;
69620;Laerm;57654;51.434;5.984;2023-04-03T00:17:05;32.73;29.34;38.30;;
69620;Laerm;57654;51.434;5.984;2023-04-03T00:17:15;33.12;29.30;39.94;;
69620;Laerm;57654;51.434;5.984;2023-04-03T00:17:25;33.24;30.01;40.74;;
69620;Laerm;57654;51.434;5.984;2023-04-03T00:17:36;32.88;29.71;39.10;;
69620;Laerm;57654;51.434;5.984;2023-04-03T00:17:46;32.98;29.66;40.59;;
69620;Laerm;57654;51.434;5.984;2023-04-03T00:17:56;32.99;29.62;39.68;;
69620;Laerm;57654;51.434;5.984;2023-04-03T00:18:07;33.25;29.56;39.92;;
69620;Laerm;57654;51.434;5.984;2023-04-03T00:18:17;33.12;29.76;42.46;;
69620;Laerm;57654;51.434;5.984;2023-04-03T00:18:27;33.51;29.78;43.93;;
69620;Laerm;57654;51.434;5.984;2023-04-03T00:18:38;33.10;29.90;37.72;;
69620;Laerm;57654;51.434;5.984;2023-04-03T00:18:49;32.93;29.94;40.64;;
69620;Laerm;57654;51.434;5.984;2023-04-03T00:18:59;33.36;30.29;40.66;;
69620;Laerm;57654;51.434;5.984;2023-04-03T00:19:09;33.24;30.54;40.25;;
69620;Laerm;57654;51.434;5.984;2023-04-03T00:19:21;33.27;30.24;38.71;;
69620;Laerm;57654;51.434;5.984;2023-04-03T00:19:32;32.98;30.30;38.44;;
69620;Laerm;57654;51.434;5.984;2023-04-03T00:19:42;32.95;29.91;37.51;;
69620;Laerm;57654;51.434;5.984;2023-04-03T00:19:52;33.16;29.63;41.25;;
69620;Laerm;57654;51.434;5.984;2023-04-03T00:20:03;33.10;29.74;38.53;;
69620;Laerm;57654;51.434;5.984;2023-04-03T00:20:13;32.97;29.89;41.24;;
69620;Laerm;57654;51.434;5.984;2023-04-03T00:20:23;33.39;30.23;40.93;;
69620;Laerm;57654;51.434;5.984;2023-04-03T00:20:34;33.55;30.61;40.34;;
69620;Laerm;57654;51.434;5.984;2023-04-03T00:20:44;33.35;30.75;40.87;;
69620;Laerm;57654;51.434;5.984;2023-04-03T00:20:55;33.68;30.28;39.12;;
69620;Laerm;57654;51.434;5.984;2023-04-03T00:21:05;34.05;30.81;41.08;;
69620;Laerm;57654;51.434;5.984;2023-04-03T00:21:15;36.01;31.77;40.05;;
69620;Laerm;57654;51.434;5.984;2023-04-03T00:21:26;43.24;37.33;47.25;;
69620;Laerm;57654;51.434;5.984;2023-04-03T00:21:36;53.04;45.72;57.10;;
69620;Laerm;57654;51.434;5.984;2023-04-03T00:21:46;56.83;54.01;58.64;;
69620;Laerm;57654;51.434;5.984;2023-04-03T00:21:56;55.05;49.42;57.86;;
69620;Laerm;57654;51.434;5.984;2023-04-03T00:22:07;44.95;35.75;51.36;;
69620;Laerm;57654;51.434;5.984;2023-04-03T00:22:17;35.01;32.19;40.16;;
69620;Laerm;57654;51.434;5.984;2023-04-03T00:22:27;33.65;30.50;39.12;;
69620;Laerm;57654;51.434;5.984;2023-04-03T00:22:38;32.55;29.74;38.40;;
69620;Laerm;57654;51.434;5.984;2023-04-03T00:22:49;33.27;29.95;39.83;;
69620;Laerm;57654;51.434;5.984;2023-04-03T00:23:00;32.79;29.34;37.51;;
69620;Laerm;57654;51.434;5.984;2023-04-03T00:23:10;32.83;29.97;39.25;;
69620;Laerm;57654;51.434;5.984;2023-04-03T00:23:20;33.23;29.84;40.03;;
69620;Laerm;57654;51.434;5.984;2023-04-03T00:23:31;32.43;29.65;39.31;;
69620;Laerm;57654;51.434;5.984;2023-04-03T00:23:41;33.13;29.59;38.36;;
69620;Laerm;57654;51.434;5.984;2023-04-03T00:23:51;33.00;28.78;41.58;;
69620;Laerm;57654;51.434;5.984;2023-04-03T00:24:02;32.94;29.68;39.98;;
69620;Laerm;57654;51.434;5.984;2023-04-03T00:24:12;33.12;30.08;41.04;;
69620;Laerm;57654;51.434;5.984;2023-04-03T00:24:22;32.71;29.73;39.23;;
69620;Laerm;57654;51.434;5.984;2023-04-03T00:24:33;32.84;29.05;40.50;;
69620;Laerm;57654;51.434;5.984;2023-04-03T00:24:43;32.90;29.51;40.65;;
69620;Laerm;57654;51.434;5.984;2023-04-03T00:24:53;33.24;29.22;42.50;;
69620;Laerm;57654;51.434;5.984;2023-04-03T00:25:04;32.68;29.37;38.50;;
69620;Laerm;57654;51.434;5.984;2023-04-03T00:25:14;32.86;29.56;38.98;;
69620;Laerm;57654;51.434;5.984;2023-04-03T00:25:25;33.21;29.91;42.33;;
69620;Laerm;57654;51.434;5.984;2023-04-03T00:25:35;32.63;29.44;39.04;;
69620;Laerm;57654;51.434;5.984;2023-04-03T00:25:45;32.74;29.32;37.41;;
69620;Laerm;57654;51.434;5.984;2023-04-03T00:25:56;32.85;29.87;38.65;;
69620;Laerm;57654;51.434;5.984;2023-04-03T00:26:06;32.94;28.92;40.10;;
69620;Laerm;57654;51.434;5.984;2023-04-03T00:26:16;32.76;29.50;39.23;;
69620;Laerm;57654;51.434;5.984;2023-04-03T00:26:27;33.24;29.79;40.43;;
69620;Laerm;57654;51.434;5.984;2023-04-03T00:26:37;33.01;29.77;39.31;;
69620;Laerm;57654;51.434;5.984;2023-04-03T00:26:47;32.86;29.86;39.46;;
69620;Laerm;57654;51.434;5.984;2023-04-03T00:26:57;32.87;29.50;37.23;;
69620;Laerm;57654;51.434;5.984;2023-04-03T00:27:08;32.75;29.55;39.98;;
69620;Laerm;57654;51.434;5.984;2023-04-03T00:27:18;32.57;29.43;38.95;;
69620;Laerm;57654;51.434;5.984;2023-04-03T00:27:28;32.80;29.82;38.67;;
69620;Laerm;57654;51.434;5.984;2023-04-03T00:27:39;32.83;29.96;37.85;;
69620;Laerm;57654;51.434;5.984;2023-04-03T00:27:49;33.08;29.82;38.72;;
69620;Laerm;57654;51.434;5.984;2023-04-03T00:27:59;33.03;29.95;39.04;;
69620;Laerm;57654;51.434;5.984;2023-04-03T00:28:10;32.86;29.76;37.29;;
69620;Laerm;57654;51.434;5.984;2023-04-03T00:28:20;32.77;30.16;38.01;;
69620;Laerm;57654;51.434;5.984;2023-04-03T00:28:31;32.86;30.05;37.12;;
69620;Laerm;57654;51.434;5.984;2023-04-03T00:28:41;33.08;29.94;38.14;;
69620;Laerm;57654;51.434;5.984;2023-04-03T00:28:51;32.90;30.07;37.75;;
69620;Laerm;57654;51.434;5.984;2023-04-03T00:29:02;32.68;30.04;37.05;;
69620;Laerm;57654;51.434;5.984;2023-04-03T00:29:12;32.97;30.02;38.45;;
69620;Laerm;57654;51.434;5.984;2023-04-03T00:29:22;33.25;30.17;38.69;;
69620;Laerm;57654;51.434;5.984;2023-04-03T00:29:32;33.75;30.35;42.85;;
69620;Laerm;57654;51.434;5.984;2023-04-03T00:29:43;33.99;31.41;39.81;;
69620;Laerm;57654;51.434;5.984;2023-04-03T00:29:53;34.65;31.90;39.25;;
69620;Laerm;57654;51.434;5.984;2023-04-03T00:30:03;37.25;33.30;42.94;;
69620;Laerm;57654;51.434;5.984;2023-04-03T00:30:15;44.34;38.41;49.26;;
69620;Laerm;57654;51.434;5.984;2023-04-03T00:30:26;55.52;47.37;60.05;;
69620;Laerm;57654;51.434;5.984;2023-04-03T00:30:37;58.40;56.94;60.19;;
69620;Laerm;57654;51.434;5.984;2023-04-03T00:30:50;56.56;50.98;59.24;;
69620;Laerm;57654;51.434;5.984;2023-04-03T00:31:00;45.09;35.50;52.49;;
69620;Laerm;57654;51.434;5.984;2023-04-03T00:31:11;35.07;31.33;39.40;;
69620;Laerm;57654;51.434;5.984;2023-04-03T00:31:23;33.04;29.91;38.86;;
69620;Laerm;57654;51.434;5.984;2023-04-03T00:31:34;32.55;29.81;37.53;;
69620;Laerm;57654;51.434;5.984;2023-04-03T00:31:44;32.91;29.43;39.40;;
69620;Laerm;57654;51.434;5.984;2023-04-03T00:31:55;32.75;29.89;37.89;;
69620;Laerm;57654;51.434;5.984;2023-04-03T00:32:05;33.05;29.60;41.75;;
69620;Laerm;57654;51.434;5.984;2023-04-03T00:32:15;33.14;29.35;39.40;;
69620;Laerm;57654;51.434;5.984;2023-04-03T00:32:26;32.64;29.67;38.15;;
69620;Laerm;57654;51.434;5.984;2023-04-03T00:32:36;32.75;29.78;38.78;;
69620;Laerm;57654;51.434;5.984;2023-04-03T00:32:49;33.07;29.57;40.15;;
69620;Laerm;57654;51.434;5.984;2023-04-03T00:33:00;32.78;29.78;42.01;;
69620;Laerm;57654;51.434;5.984;2023-04-03T00:33:14;32.94;29.16;40.86;;
69620;Laerm;57654;51.434;5.984;2023-04-03T00:33:24;32.78;29.43;38.91;;
69620;Laerm;57654;51.434;5.984;2023-04-03T00:33:34;32.65;29.18;38.94;;
69620;Laerm;57654;51.434;5.984;2023-04-03T00:33:45;33.16;30.09;39.89;;
69620;Laerm;57654;51.434;5.984;2023-04-03T00:33:55;32.87;30.15;41.97;;
69620;Laerm;57654;51.434;5.984;2023-04-03T00:34:05;33.06;29.63;41.58;;
69620;Laerm;57654;51.434;5.984;2023-04-03T00:34:15;33.11;29.84;40.69;;
69620;Laerm;57654;51.434;5.984;2023-04-03T00:34:26;32.77;29.31;40.02;;
69620;Laerm;57654;51.434;5.984;2023-04-03T00:34:36;32.86;29.42;38.94;;
69620;Laerm;57654;51.434;5.984;2023-04-03T00:34:46;33.17;29.91;39.03;;
69620;Laerm;57654;51.434;5.984;2023-04-03T00:34:56;33.05;29.67;39.39;;
69620;Laerm;57654;51.434;5.984;2023-04-03T00:35:07;32.55;29.79;38.76;;
69620;Laerm;57654;51.434;5.984;2023-04-03T00:35:18;32.74;29.31;40.35;;
69620;Laerm;57654;51.434;5.984;2023-04-03T00:35:28;33.10;30.07;39.65;;
69620;Laerm;57654;51.434;5.984;2023-04-03T00:35:39;32.63;29.58;39.29;;
69620;Laerm;57654;51.434;5.984;2023-04-03T00:35:49;32.84;29.37;38.00;;
69620;Laerm;57654;51.434;5.984;2023-04-03T00:36:05;33.03;29.51;40.29;;
69620;Laerm;57654;51.434;5.984;2023-04-03T00:36:15;32.88;29.83;39.19;;
69620;Laerm;57654;51.434;5.984;2023-04-03T00:36:25;32.81;29.91;38.10;;
69620;Laerm;57654;51.434;5.984;2023-04-03T00:36:36;33.12;29.75;41.89;;
69620;Laerm;57654;51.434;5.984;2023-04-03T00:36:46;32.92;29.60;42.43;;
69620;Laerm;57654;51.434;5.984;2023-04-03T00:36:56;32.97;29.53;37.93;;
69620;Laerm;57654;51.434;5.984;2023-04-03T00:37:07;33.06;29.57;41.17;;
69620;Laerm;57654;51.434;5.984;2023-04-03T00:37:17;33.08;29.75;39.99;;
69620;Laerm;57654;51.434;5.984;2023-04-03T00:37:27;32.99;29.81;38.58;;
69620;Laerm;57654;51.434;5.984;2023-04-03T00:37:37;33.33;29.73;40.32;;
69620;Laerm;57654;51.434;5.984;2023-04-03T00:37:48;33.01;29.73;41.65;;
69620;Laerm;57654;51.434;5.984;2023-04-03T00:38:00;32.99;29.30;40.06;;
69620;Laerm;57654;51.434;5.984;2023-04-03T00:38:11;33.52;29.38;39.48;;
69620;Laerm;57654;51.434;5.984;2023-04-03T00:38:21;33.12;29.96;38.92;;
69620;Laerm;57654;51.434;5.984;2023-04-03T00:38:31;33.08;29.90;40.88;;
69620;Laerm;57654;51.434;5.984;2023-04-03T00:38:42;32.91;29.29;38.68;;
69620;Laerm;57654;51.434;5.984;2023-04-03T00:38:52;33.13;29.82;41.65;;
69620;Laerm;57654;51.434;5.984;2023-04-03T00:39:02;32.84;29.68;37.05;;
69620;Laerm;57654;51.434;5.984;2023-04-03T00:39:13;33.21;29.89;39.61;;
69620;Laerm;57654;51.434;5.984;2023-04-03T00:39:23;32.83;29.42;36.40;;
69620;Laerm;57654;51.434;5.984;2023-04-03T00:39:33;33.20;30.12;41.42;;
69620;Laerm;57654;51.434;5.984;2023-04-03T00:39:43;32.84;29.90;37.79;;
69620;Laerm;57654;51.434;5.984;2023-04-03T00:39:53;32.98;29.96;40.76;;
69620;Laerm;57654;51.434;5.984;2023-04-03T00:40:04;33.08;29.71;39.63;;
69620;Laerm;57654;51.434;5.984;2023-04-03T00:40:15;32.81;29.80;36.82;;
69620;Laerm;57654;51.434;5.984;2023-04-03T00:40:26;33.10;29.50;38.83;;
69620;Laerm;57654;51.434;5.984;2023-04-03T00:40:38;33.09;29.63;38.53;;
69620;Laerm;57654;51.434;5.984;2023-04-03T00:40:49;32.94;29.83;39.61;;
69620;Laerm;57654;51.434;5.984;2023-04-03T00:40:59;33.03;29.30;39.64;;
69620;Laerm;57654;51.434;5.984;2023-04-03T00:41:09;33.07;29.73;39.48;;
69620;Laerm;57654;51.434;5.984;2023-04-03T00:41:20;33.27;30.02;40.58;;
69620;Laerm;57654;51.434;5.984;2023-04-03T00:41:31;33.19;29.68;42.57;;
69620;Laerm;57654;51.434;5.984;2023-04-03T00:41:42;32.73;30.07;42.09;;
69620;Laerm;57654;51.434;5.984;2023-04-03T00:41:52;33.22;29.67;40.77;;
69620;Laerm;57654;51.434;5.984;2023-04-03T00:42:02;32.95;30.15;37.91;;
69620;Laerm;57654;51.434;5.984;2023-04-03T00:42:12;33.45;30.02;42.23;;
69620;Laerm;57654;51.434;5.984;2023-04-03T00:42:23;33.18;30.12;42.89;;
69620;Laerm;57654;51.434;5.984;2023-04-03T00:42:33;34.00;31.07;38.72;;
69620;Laerm;57654;51.434;5.984;2023-04-03T00:42:45;34.06;30.46;40.12;;
69620;Laerm;57654;51.434;5.984;2023-04-03T00:42:59;33.19;29.79;40.03;;
69620;Laerm;57654;51.434;5.984;2023-04-03T00:43:13;33.98;30.45;42.61;;
69620;Laerm;57654;51.434;5.984;2023-04-03T00:43:24;33.22;30.12;41.92;;
69620;Laerm;57654;51.434;5.984;2023-04-03T00:43:35;33.38;29.94;40.00;;
69620;Laerm;57654;51.434;5.984;2023-04-03T00:43:45;33.00;29.91;38.17;;
69620;Laerm;57654;51.434;5.984;2023-04-03T00:43:55;32.84;29.72;38.69;;
69620;Laerm;57654;51.434;5.984;2023-04-03T00:44:22;32.98;29.75;39.58;;
69620;Laerm;57654;51.434;5.984;2023-04-03T00:45:27;32.86;29.44;37.74;;
69620;Laerm;57654;51.434;5.984;2023-04-03T00:45:40;33.09;29.28;38.32;;
69620;Laerm;57654;51.434;5.984;2023-04-03T00:45:51;33.18;29.64;40.38;;
69620;Laerm;57654;51.434;5.984;2023-04-03T00:46:02;32.88;29.62;38.15;;
69620;Laerm;57654;51.434;5.984;2023-04-03T00:46:12;33.19;30.25;43.35;;
69620;Laerm;57654;51.434;5.984;2023-04-03T00:46:22;32.90;29.83;37.76;;
69620;Laerm;57654;51.434;5.984;2023-04-03T00:46:33;32.76;29.60;38.77;;
69620;Laerm;57654;51.434;5.984;2023-04-03T00:46:43;32.94;29.85;37.91;;
69620;Laerm;57654;51.434;5.984;2023-04-03T00:46:53;33.03;29.86;38.26;;
69620;Laerm;57654;51.434;5.984;2023-04-03T00:47:04;33.18;29.76;40.08;;
69620;Laerm;57654;51.434;5.984;2023-04-03T00:47:16;33.04;29.77;39.24;;
69620;Laerm;57654;51.434;5.984;2023-04-03T00:47:27;32.88;29.53;39.61;;
69620;Laerm;57654;51.434;5.984;2023-04-03T00:47:38;32.97;30.11;37.73;;
69620;Laerm;57654;51.434;5.984;2023-04-03T00:47:49;32.96;29.25;40.11;;
69620;Laerm;57654;51.434;5.984;2023-04-03T00:48:00;32.75;29.87;36.53;;
69620;Laerm;57654;51.434;5.984;2023-04-03T00:48:15;33.25;29.79;40.76;;
69620;Laerm;57654;51.434;5.984;2023-04-03T00:48:38;33.21;29.85;38.75;;
69620;Laerm;57654;51.434;5.984;2023-04-03T00:48:50;33.27;29.74;39.29;;
69620;Laerm;57654;51.434;5.984;2023-04-03T00:49:00;32.97;29.21;39.83;;
69620;Laerm;57654;51.434;5.984;2023-04-03T00:49:10;33.10;29.56;42.61;;
69620;Laerm;57654;51.434;5.984;2023-04-03T00:49:20;33.24;29.77;38.34;;
69620;Laerm;57654;51.434;5.984;2023-04-03T00:49:31;33.06;30.06;39.29;;
69620;Laerm;57654;51.434;5.984;2023-04-03T00:49:41;33.03;29.67;38.12;;
69620;Laerm;57654;51.434;5.984;2023-04-03T00:49:52;32.97;30.08;38.76;;
69620;Laerm;57654;51.434;5.984;2023-04-03T00:50:03;33.15;29.43;39.64;;
69620;Laerm;57654;51.434;5.984;2023-04-03T00:50:14;32.93;29.54;37.72;;
69620;Laerm;57654;51.434;5.984;2023-04-03T00:50:24;32.99;29.26;41.18;;
69620;Laerm;57654;51.434;5.984;2023-04-03T00:50:37;33.32;30.04;40.35;;
69620;Laerm;57654;51.434;5.984;2023-04-03T00:50:48;32.85;29.75;38.87;;
69620;Laerm;57654;51.434;5.984;2023-04-03T00:50:59;32.92;29.76;38.10;;
69620;Laerm;57654;51.434;5.984;2023-04-03T00:51:12;33.18;29.81;39.54;;
69620;Laerm;57654;51.434;5.984;2023-04-03T00:51:23;33.05;29.69;38.86;;
69620;Laerm;57654;51.434;5.984;2023-04-03T00:51:34;33.04;30.09;40.08;;
69620;Laerm;57654;51.434;5.984;2023-04-03T00:51:45;32.86;29.94;41.25;;
69620;Laerm;57654;51.434;5.984;2023-04-03T00:51:55;32.66;29.87;38.93;;
69620;Laerm;57654;51.434;5.984;2023-04-03T00:52:07;33.64;29.48;45.68;;
69620;Laerm;57654;51.434;5.984;2023-04-03T00:52:19;32.96;29.97;38.91;;
69620;Laerm;57654;51.434;5.984;2023-04-03T00:52:31;32.92;29.78;38.30;;
69620;Laerm;57654;51.434;5.984;2023-04-03T00:52:41;33.22;30.08;40.16;;
69620;Laerm;57654;51.434;5.984;2023-04-03T00:52:51;32.95;30.10;38.93;;
69620;Laerm;57654;51.434;5.984;2023-04-03T00:53:03;33.04;29.86;38.80;;
69620;Laerm;57654;51.434;5.984;2023-04-03T00:53:15;33.25;30.01;40.08;;
69620;Laerm;57654;51.434;5.984;2023-04-03T00:53:29;33.03;29.87;40.63;;
69620;Laerm;57654;51.434;5.984;2023-04-03T00:53:45;33.18;30.15;40.19;;
69620;Laerm;57654;51.434;5.984;2023-04-03T00:54:00;33.81;30.77;38.90;;
69620;Laerm;57654;51.434;5.984;2023-04-03T00:54:12;46.64;33.04;54.16;;
69620;Laerm;57654;51.434;5.984;2023-04-03T00:54:22;57.07;52.89;60.54;;
69620;Laerm;57654;51.434;5.984;2023-04-03T00:54:32;57.25;53.98;59.86;;
69620;Laerm;57654;51.434;5.984;2023-04-03T00:54:45;50.06;43.43;56.14;;
69620;Laerm;57654;51.434;5.984;2023-04-03T00:55:00;43.20;40.59;45.50;;
69620;Laerm;57654;51.434;5.984;2023-04-03T00:55:11;39.01;34.06;43.08;;
69620;Laerm;57654;51.434;5.984;2023-04-03T00:55:21;36.18;33.94;40.10;;
69620;Laerm;57654;51.434;5.984;2023-04-03T00:55:32;35.93;33.62;38.88;;
69620;Laerm;57654;51.434;5.984;2023-04-03T00:55:44;35.49;32.92;41.14;;
69620;Laerm;57654;51.434;5.984;2023-04-03T00:55:56;34.52;31.70;41.35;;
69620;Laerm;57654;51.434;5.984;2023-04-03T00:56:08;34.84;31.85;41.70;;
69620;Laerm;57654;51.434;5.984;2023-04-03T00:56:21;34.31;30.47;40.02;;
69620;Laerm;57654;51.434;5.984;2023-04-03T00:56:33;33.61;30.38;40.08;;
69620;Laerm;57654;51.434;5.984;2023-04-03T00:56:45;33.61;30.14;38.93;;
69620;Laerm;57654;51.434;5.984;2023-04-03T00:56:56;33.66;30.02;39.08;;
69620;Laerm;57654;51.434;5.984;2023-04-03T00:57:07;33.29;30.17;38.35;;
69620;Laerm;57654;51.434;5.984;2023-04-03T00:57:18;33.56;30.24;41.20;;
69620;Laerm;57654;51.434;5.984;2023-04-03T00:57:28;33.48;30.28;37.81;;
69620;Laerm;57654;51.434;5.984;2023-04-03T00:57:40;33.05;29.66;39.17;;
69620;Laerm;57654;51.434;5.984;2023-04-03T00:57:51;32.81;29.88;38.14;;
69620;Laerm;57654;51.434;5.984;2023-04-03T00:58:01;32.98;29.96;38.79;;
69620;Laerm;57654;51.434;5.984;2023-04-03T00:58:12;32.94;29.83;38.25;;
69620;Laerm;57654;51.434;5.984;2023-04-03T00:58:32;32.77;30.07;37.50;;
69620;Laerm;57654;51.434;5.984;2023-04-03T00:58:44;33.10;30.18;37.50;;
69620;Laerm;57654;51.434;5.984;2023-04-03T00:58:59;33.26;29.61;42.18;;
69620;Laerm;57654;51.434;5.984;2023-04-03T00:59:16;33.10;30.02;40.52;;
69620;Laerm;57654;51.434;5.984;2023-04-03T00:59:33;33.11;29.89;39.51;;
69620;Laerm;57654;51.434;5.984;2023-04-03T00:59:45;33.46;30.29;41.81;;
69620;Laerm;57654;51.434;5.984;2023-04-03T01:00:01;33.40;29.90;38.11;;
69620;Laerm;57654;51.434;5.984;2023-04-03T01:00:14;33.21;30.05;39.31;;
69620;Laerm;57654;51.434;5.984;2023-04-03T01:00:26;33.07;29.81;37.99;;
69620;Laerm;57654;51.434;5.984;2023-04-03T01:00:37;32.85;29.93;37.25;;
69620;Laerm;57654;51.434;5.984;2023-04-03T01:00:52;33.45;30.36;41.44;;
69620;Laerm;57654;51.434;5.984;2023-04-03T01:01:07;32.92;30.24;39.16;;
69620;Laerm;57654;51.434;5.984;2023-04-03T01:01:18;33.61;30.34;39.77;;
69620;Laerm;57654;51.434;5.984;2023-04-03T01:01:30;33.79;30.72;39.53;;
69620;Laerm;57654;51.434;5.984;2023-04-03T01:01:41;33.94;31.40;39.01;;
69620;Laerm;57654;51.434;5.984;2023-04-03T01:01:52;33.86;31.22;39.48;;
69620;Laerm;57654;51.434;5.984;2023-04-03T01:02:04;36.38;31.75;42.09;;